Time;durP1;ratioP1;P1;durP2;ratioP2;P2;SDS_P1;SDS_P2;PMS_P1;PMS_P2;Temp;Humidity;BMP_temperature;BMP_pressure;BME280_temperature;BME280_humidity;BME280_pressure;Samples;Min_cycle;Max_cycle;Signal;HPM_P1;HPM_P2
2023/06/25 00:00:47;;;;;;;13.52;5.85;;;;;;;-140.66;100.00;55571.53;5138131;27;20042;-75
2023/06/25 00:03:32;;;;;;;13.75;6.10;;;;;;;-140.66;100.00;55571.53;5122977;27;20027;-76
2023/06/25 00:06:19;;;;;;;17.27;6.00;;;;;;;-140.66;100.00;55571.53;5137022;27;20030;-75
2023/06/25 00:09:05;;;;;;;11.55;5.85;;;;;;;-140.66;100.00;55571.53;5120839;27;20026;-75
2023/06/25 00:11:50;;;;;;;14.50;5.88;;;;;;;-140.66;100.00;55571.53;5136299;27;20087;-76
2023/06/25 00:14:36;;;;;;;11.77;5.20;;;;;;;-140.66;100.00;55571.53;5136298;27;20102;-74
2023/06/25 00:17:27;;;;;;;12.73;5.40;;;;;;;-140.66;100.00;55571.53;5138385;27;20022;-75
2023/06/25 00:20:17;;;;;;;10.25;5.68;;;;;;;-140.66;100.00;55571.53;5157195;27;20042;-75
2023/06/25 00:23:02;;;;;;;13.05;5.70;;;;;;;-140.66;100.00;55571.53;5115434;28;20058;-76
2023/06/25 00:25:48;;;;;;;11.63;5.93;;;;;;;-140.66;100.00;55571.53;5117528;27;20035;-75
2023/06/25 00:28:34;;;;;;;12.55;5.47;;;;;;;-140.66;100.00;55571.53;5135491;27;20027;-76
2023/06/25 00:31:19;;;;;;;14.27;5.80;;;;;;;-140.66;100.00;55571.53;5144667;27;20023;-74
2023/06/25 00:34:05;;;;;;;12.95;5.50;;;;;;;-140.66;100.00;55571.53;5134459;27;20012;-75
2023/06/25 00:36:52;;;;;;;10.85;5.78;;;;;;;-140.66;100.00;55571.53;5135474;27;20022;-76
2023/06/25 00:39:37;;;;;;;11.75;5.30;;;;;;;-140.66;100.00;55571.53;5140415;27;20168;-76
2023/06/25 00:42:23;;;;;;;11.95;5.20;;;;;;;-140.66;100.00;55571.53;5135891;27;20070;-75
2023/06/25 00:45:13;;;;;;;14.77;6.03;;;;;;;-140.66;100.00;55571.53;5135018;27;20092;-76
2023/06/25 00:47:59;;;;;;;10.02;5.15;;;;;;;-140.66;100.00;55571.53;5119830;27;20106;-76
2023/06/25 00:50:45;;;;;;;11.02;5.65;;;;;;;-140.66;100.00;55571.53;5135656;27;20042;-75
2023/06/25 00:53:36;;;;;;;14.48;5.93;;;;;;;-140.66;100.00;55571.53;5136657;27;20019;-76
2023/06/25 00:56:27;;;;;;;12.43;5.45;;;;;;;-140.66;100.00;55571.53;5134221;27;20102;-76
2023/06/25 00:59:16;;;;;;;17.35;6.53;;;;;;;-140.66;100.00;55571.53;5135387;27;20110;-75
2023/06/25 01:02:14;;;;;;;13.95;6.82;;;;;;;-140.66;100.00;55571.53;5135860;27;20431;-76
2023/06/25 01:05:11;;;;;;;14.13;7.45;;;;;;;-140.66;100.00;55571.53;5135362;27;20027;-75
2023/06/25 01:08:00;;;;;;;15.75;7.20;;;;;;;-140.66;100.00;55571.53;5142779;27;20025;-77
2023/06/25 01:10:45;;;;;;;16.50;7.18;;;;;;;-140.66;100.00;55571.53;5144798;27;20031;-76
2023/06/25 01:13:31;;;;;;;15.18;6.88;;;;;;;-140.66;100.00;55571.53;5138284;27;20019;-76
2023/06/25 01:16:17;;;;;;;11.40;6.75;;;;;;;-140.66;100.00;55571.53;5137967;27;20023;-76
2023/06/25 01:19:03;;;;;;;13.38;6.90;;;;;;;-140.66;100.00;55571.53;5134247;27;20054;-76
2023/06/25 01:21:49;;;;;;;16.73;7.13;;;;;;;-140.66;100.00;55571.53;5134647;27;20034;-76
2023/06/25 01:24:35;;;;;;;11.82;6.43;;;;;;;-140.66;100.00;55571.53;5134687;27;20045;-76
2023/06/25 01:27:22;;;;;;;11.23;6.93;;;;;;;-140.66;100.00;55571.53;5134248;27;20034;-75
2023/06/25 01:30:09;;;;;;;13.02;6.72;;;;;;;-140.66;100.00;55571.53;5134261;27;20059;-76
2023/06/25 01:32:55;;;;;;;14.73;7.30;;;;;;;-140.66;100.00;55571.53;5134707;27;20030;-76
2023/06/25 01:35:42;;;;;;;17.45;7.00;;;;;;;-140.66;100.00;55571.53;5135077;27;20015;-75
2023/06/25 01:38:28;;;;;;;12.98;7.03;;;;;;;-140.66;100.00;55571.53;5134864;27;20425;-76
2023/06/25 01:41:13;;;;;;;20.15;7.40;;;;;;;-140.66;100.00;55571.53;5135188;27;20120;-76
2023/06/25 01:43:59;;;;;;;15.95;7.10;;;;;;;-140.66;100.00;55571.53;5133608;27;20031;-76
2023/06/25 01:46:45;;;;;;;13.35;6.43;;;;;;;-140.66;100.00;55571.53;5134950;27;20019;-76
2023/06/25 01:49:30;;;;;;;17.30;6.75;;;;;;;-140.66;100.00;55571.53;5134457;27;20027;-74
2023/06/25 01:52:16;;;;;;;13.10;6.53;;;;;;;-140.66;100.00;55571.53;5134450;27;20365;-76
2023/06/25 01:55:02;;;;;;;14.35;6.57;;;;;;;-140.66;100.00;55571.53;5119977;27;20038;-75
2023/06/25 01:57:48;;;;;;;11.77;6.13;;;;;;;-140.66;100.00;55571.53;5129990;28;20024;-75
2023/06/25 02:00:36;;;;;;;15.10;6.65;;;;;;;-140.66;100.00;55571.53;5124055;28;20080;-74
2023/06/25 02:03:22;;;;;;;14.85;6.47;;;;;;;-140.66;100.00;55571.53;5103901;28;20114;-74
2023/06/25 02:06:08;;;;;;;11.23;5.97;;;;;;;-140.66;100.00;55571.53;5117449;28;20039;-75
2023/06/25 02:08:53;;;;;;;13.23;6.07;;;;;;;-140.66;100.00;55571.53;5117495;28;20034;-75
2023/06/25 02:11:39;;;;;;;11.38;5.90;;;;;;;-140.66;100.00;55571.53;5114028;28;20032;-75
2023/06/25 02:14:25;;;;;;;13.80;6.40;;;;;;;-140.66;100.00;55571.53;5113603;28;20062;-75
2023/06/25 02:17:11;;;;;;;12.40;5.70;;;;;;;-140.66;100.00;55571.53;5114231;28;20118;-74
2023/06/25 02:19:56;;;;;;;12.27;6.15;;;;;;;-140.66;100.00;55571.53;5113408;28;20393;-75
2023/06/25 02:22:42;;;;;;;13.23;5.97;;;;;;;-140.66;100.00;55571.53;5113631;28;20039;-75
2023/06/25 02:25:28;;;;;;;13.98;6.13;;;;;;;-140.66;100.00;55571.53;5099240;28;20059;-75
2023/06/25 02:28:13;;;;;;;12.77;6.28;;;;;;;-140.66;100.00;55571.53;5114768;28;20019;-75
2023/06/25 02:30:59;;;;;;;12.57;6.35;;;;;;;-140.66;100.00;55571.53;5117779;28;20065;-75
2023/06/25 02:33:45;;;;;;;12.13;6.35;;;;;;;-140.66;100.00;55571.53;5117583;28;20111;-75
2023/06/25 02:36:31;;;;;;;10.07;5.82;;;;;;;-140.66;100.00;55571.53;5116661;28;20035;-75
2023/06/25 02:39:17;;;;;;;14.52;6.43;;;;;;;-140.66;100.00;55571.53;5117810;28;20471;-76
2023/06/25 02:42:03;;;;;;;14.23;5.97;;;;;;;-140.66;100.00;55571.53;5117895;28;20318;-76
2023/06/25 02:44:48;;;;;;;14.35;5.95;;;;;;;-140.66;100.00;55571.53;5117312;28;20030;-76
2023/06/25 02:47:34;;;;;;;13.35;6.03;;;;;;;-140.66;100.00;55571.53;5118054;28;20034;-75
2023/06/25 02:50:20;;;;;;;13.55;6.32;;;;;;;-140.66;100.00;55571.53;5117104;28;20023;-75
2023/06/25 02:53:05;;;;;;;11.70;6.68;;;;;;;-140.66;100.00;55571.53;5102957;28;20038;-75
2023/06/25 02:55:51;;;;;;;13.20;6.15;;;;;;;-140.66;100.00;55571.53;5118028;28;20471;-75
2023/06/25 02:58:37;;;;;;;12.10;5.93;;;;;;;-140.66;100.00;55571.53;5103350;28;20412;-75
2023/06/25 03:01:23;;;;;;;15.30;5.57;;;;;;;-140.66;100.00;55571.53;5116221;28;20043;-74
2023/06/25 03:04:08;;;;;;;14.73;6.25;;;;;;;-140.66;100.00;55571.53;5103102;28;20118;-76
2023/06/25 03:06:54;;;;;;;12.30;5.72;;;;;;;-140.66;100.00;55571.53;5117019;28;20314;-76
2023/06/25 03:09:41;;;;;;;13.88;6.15;;;;;;;-140.66;100.00;55571.53;5116954;28;20024;-75
2023/06/25 03:12:26;;;;;;;12.35;5.75;;;;;;;-140.66;100.00;55571.53;5117537;28;20027;-76
2023/06/25 03:15:12;;;;;;;13.80;6.00;;;;;;;-140.66;100.00;55571.53;5117691;28;20034;-76
2023/06/25 03:17:58;;;;;;;16.67;6.10;;;;;;;-140.66;100.00;55571.53;5117357;28;20020;-76
2023/06/25 03:20:44;;;;;;;12.40;5.78;;;;;;;-140.66;100.00;55571.53;5102956;28;20065;-75
2023/06/25 03:23:29;;;;;;;17.88;6.47;;;;;;;-140.66;100.00;55571.53;5117214;28;20108;-75
2023/06/25 03:26:15;;;;;;;18.30;6.30;;;;;;;-140.66;100.00;55571.53;5117643;28;20108;-76
2023/06/25 03:29:01;;;;;;;11.18;6.03;;;;;;;-140.66;100.00;55571.53;5116521;28;20027;-76
2023/06/25 03:31:47;;;;;;;13.98;6.32;;;;;;;-140.66;100.00;55571.53;5117214;28;20043;-76
2023/06/25 03:34:33;;;;;;;10.30;5.70;;;;;;;-140.66;100.00;55571.53;5117086;28;20094;-76
2023/06/25 03:37:19;;;;;;;11.80;6.35;;;;;;;-140.66;100.00;55571.53;5117156;28;20115;-76
2023/06/25 03:40:05;;;;;;;14.57;6.40;;;;;;;-140.66;100.00;55571.53;5115634;28;20031;-76
2023/06/25 03:42:51;;;;;;;13.57;6.10;;;;;;;-140.66;100.00;55571.53;5116442;28;20309;-75
2023/06/25 03:45:37;;;;;;;15.00;6.53;;;;;;;-140.66;100.00;55571.53;5116444;28;20119;-74
2023/06/25 03:48:22;;;;;;;13.27;6.22;;;;;;;-140.66;100.00;55571.53;5102496;28;20038;-75
2023/06/25 03:51:09;;;;;;;15.88;6.28;;;;;;;-140.66;100.00;55571.53;5116462;28;20074;-75
2023/06/25 03:53:55;;;;;;;15.88;6.75;;;;;;;-140.66;100.00;55571.53;5116853;28;20114;-74
2023/06/25 03:56:41;;;;;;;14.38;6.93;;;;;;;-140.66;100.00;55571.53;5117458;28;20019;-76
2023/06/25 03:59:28;;;;;;;13.00;6.07;;;;;;;-140.66;100.00;55571.53;5116414;28;20112;-76
2023/06/25 04:02:13;;;;;;;14.88;6.32;;;;;;;-140.66;100.00;55571.53;5116551;28;20444;-75
2023/06/25 04:04:59;;;;;;;11.13;6.40;;;;;;;-140.66;100.00;55571.53;5115674;28;20056;-76
2023/06/25 04:07:45;;;;;;;15.02;6.53;;;;;;;-140.66;100.00;55571.53;5115160;28;20039;-75
2023/06/25 04:10:31;;;;;;;22.92;6.75;;;;;;;-140.66;100.00;55571.53;5116063;28;20035;-75
2023/06/25 04:13:16;;;;;;;17.02;7.10;;;;;;;-140.66;100.00;55571.53;5116223;28;20094;-75
2023/06/25 04:16:02;;;;;;;13.80;6.55;;;;;;;-140.66;100.00;55571.53;5116129;28;20381;-74
2023/06/25 04:18:48;;;;;;;14.20;6.88;;;;;;;-140.66;100.00;55571.53;5115765;28;20464;-76
2023/06/25 04:21:35;;;;;;;11.98;6.05;;;;;;;-140.66;100.00;55571.53;5115599;28;20063;-75
2023/06/25 04:24:20;;;;;;;13.32;6.80;;;;;;;-140.66;100.00;55571.53;5115469;28;20024;-75
2023/06/25 04:27:06;;;;;;;16.63;6.88;;;;;;;-140.66;100.00;55571.53;5116612;28;20084;-75
2023/06/25 04:29:52;;;;;;;20.38;7.32;;;;;;;-140.66;100.00;55571.53;5100396;28;20020;-75
2023/06/25 04:32:37;;;;;;;17.13;6.95;;;;;;;-140.66;100.00;55571.53;5115452;28;20027;-75
2023/06/25 04:35:23;;;;;;;13.90;6.55;;;;;;;-140.66;100.00;55571.53;5116048;28;20019;-74
2023/06/25 04:38:09;;;;;;;13.82;6.57;;;;;;;-140.66;100.00;55571.53;5116012;28;20038;-76
2023/06/25 04:40:55;;;;;;;15.35;7.50;;;;;;;-140.66;100.00;55571.53;5121216;28;20089;-73
2023/06/25 04:43:40;;;;;;;15.73;7.35;;;;;;;-140.66;100.00;55571.53;5115566;28;20019;-74
2023/06/25 04:46:26;;;;;;;16.52;6.78;;;;;;;-140.66;100.00;55571.53;5130993;28;20027;-75
2023/06/25 04:49:12;;;;;;;18.45;7.00;;;;;;;-140.66;100.00;55571.53;5130929;28;20091;-74
2023/06/25 04:51:57;;;;;;;14.32;6.45;;;;;;;-140.66;100.00;55571.53;5126951;28;20039;-76
2023/06/25 04:54:43;;;;;;;12.88;6.60;;;;;;;-140.66;100.00;55571.53;5126428;28;20043;-75
2023/06/25 04:57:29;;;;;;;12.27;6.47;;;;;;;-140.66;100.00;55571.53;5117518;28;20023;-74
2023/06/25 05:00:15;;;;;;;21.00;8.32;;;;;;;-140.66;100.00;55571.53;5116606;28;20031;-72
2023/06/25 05:03:01;;;;;;;15.25;7.03;;;;;;;-140.66;100.00;55571.53;5130382;28;20028;-76
2023/06/25 05:05:47;;;;;;;15.68;7.65;;;;;;;-140.66;100.00;55571.53;5118527;28;20161;-75
2023/06/25 05:08:32;;;;;;;14.95;6.57;;;;;;;-140.66;100.00;55571.53;5127976;28;20035;-74
2023/06/25 05:11:18;;;;;;;15.35;7.00;;;;;;;-140.66;100.00;55571.53;5122272;28;20074;-76
2023/06/25 05:14:04;;;;;;;12.32;6.70;;;;;;;-140.66;100.00;55571.53;5114495;28;20027;-76
2023/06/25 05:16:49;;;;;;;18.67;7.85;;;;;;;-140.66;100.00;55571.53;5114412;28;20023;-76
2023/06/25 05:19:35;;;;;;;16.05;7.75;;;;;;;-140.66;100.00;55571.53;5099589;28;20057;-75
2023/06/25 05:22:21;;;;;;;17.58;7.97;;;;;;;-140.66;100.00;55571.53;5122626;28;20015;-74
2023/06/25 05:25:07;;;;;;;14.70;7.10;;;;;;;-140.66;100.00;55571.53;5124717;28;20023;-76
2023/06/25 05:27:53;;;;;;;17.48;8.05;;;;;;;-140.66;100.00;55571.53;5115272;28;20047;-75
2023/06/25 05:30:38;;;;;;;16.17;7.70;;;;;;;-140.66;100.00;55571.53;5114225;28;20350;-75
2023/06/25 05:33:24;;;;;;;17.52;8.38;;;;;;;-140.66;100.00;55571.53;5114863;28;20023;-76
2023/06/25 05:36:12;;;;;;;17.58;8.15;;;;;;;-140.66;100.00;55571.53;5100071;28;20456;-75
2023/06/25 05:38:58;;;;;;;14.82;7.25;;;;;;;-140.66;100.00;55571.53;5113474;28;20042;-74
2023/06/25 05:41:44;;;;;;;15.98;8.05;;;;;;;-140.66;100.00;55571.53;5114212;28;20034;-75
2023/06/25 05:44:29;;;;;;;19.98;7.78;;;;;;;-140.66;100.00;55571.53;5098854;28;20031;-75
2023/06/25 05:47:15;;;;;;;15.75;7.50;;;;;;;-140.66;100.00;55571.53;5113551;28;20020;-76
2023/06/25 05:50:01;;;;;;;18.63;8.13;;;;;;;-140.66;100.00;55571.53;5115904;28;20024;-75
2023/06/25 05:52:47;;;;;;;16.35;7.63;;;;;;;-140.66;100.00;55571.53;5119789;28;20035;-74
2023/06/25 05:55:32;;;;;;;21.08;8.55;;;;;;;-140.66;100.00;55571.53;5117926;28;20023;-75
2023/06/25 05:58:18;;;;;;;16.20;7.15;;;;;;;-140.66;100.00;55571.53;5114537;28;20031;-75
2023/06/25 06:01:04;;;;;;;21.67;8.40;;;;;;;-140.66;100.00;55571.53;5114059;28;20049;-75
2023/06/25 06:03:50;;;;;;;14.80;7.75;;;;;;;-140.66;100.00;55571.53;5099143;28;20053;-75
2023/06/25 06:06:35;;;;;;;18.33;7.65;;;;;;;-140.66;100.00;55571.53;5114872;28;20032;-76
2023/06/25 06:09:21;;;;;;;19.02;8.27;;;;;;;-140.66;100.00;55571.53;5117976;28;20027;-75
2023/06/25 06:12:07;;;;;;;15.02;7.43;;;;;;;-140.66;100.00;55571.53;5117941;28;20042;-75
2023/06/25 06:14:54;;;;;;;18.63;8.05;;;;;;;-140.66;100.00;55571.53;5118020;28;20023;-75
2023/06/25 06:17:39;;;;;;;14.68;7.30;;;;;;;-140.66;100.00;55571.53;5117705;28;20106;-76
2023/06/25 06:20:25;;;;;;;17.42;7.90;;;;;;;-140.66;100.00;55571.53;5117798;28;20040;-75
2023/06/25 06:23:11;;;;;;;14.18;7.60;;;;;;;-140.66;100.00;55571.53;5118959;28;20131;-75
2023/06/25 06:25:56;;;;;;;18.20;7.75;;;;;;;-140.66;100.00;55571.53;5117718;28;20034;-76
2023/06/25 06:28:42;;;;;;;17.35;7.90;;;;;;;-140.66;100.00;55571.53;5117894;28;20035;-76
2023/06/25 06:31:28;;;;;;;15.07;7.90;;;;;;;-140.66;100.00;55571.53;5113962;28;20031;-76
2023/06/25 06:34:13;;;;;;;14.13;7.68;;;;;;;-140.66;100.00;55571.53;5113995;28;20031;-76
2023/06/25 06:36:59;;;;;;;13.82;7.97;;;;;;;-140.66;100.00;55571.53;5114381;28;20326;-76
2023/06/25 06:39:45;;;;;;;17.33;7.75;;;;;;;-140.66;100.00;55571.53;5117015;28;20028;-76
2023/06/25 06:42:31;;;;;;;13.93;7.40;;;;;;;-140.66;100.00;55571.53;5115069;28;20020;-76
2023/06/25 06:45:17;;;;;;;12.65;7.15;;;;;;;-140.66;100.00;55571.53;5112582;28;20118;-75
2023/06/25 06:48:05;;;;;;;11.98;7.25;;;;;;;-140.66;100.00;55571.53;5113345;28;20019;-75
2023/06/25 06:50:50;;;;;;;18.02;7.68;;;;;;;-140.66;100.00;55571.53;5113829;28;20023;-76
2023/06/25 06:53:36;;;;;;;13.80;7.68;;;;;;;-140.66;100.00;55571.53;5098388;28;20080;-75
2023/06/25 06:56:22;;;;;;;13.48;7.85;;;;;;;-140.66;100.00;55571.53;5113940;28;20024;-76
2023/06/25 06:59:07;;;;;;;15.95;7.70;;;;;;;-140.66;100.00;55571.53;5113407;28;20092;-76
2023/06/25 07:01:53;;;;;;;15.30;8.07;;;;;;;-140.66;100.00;55571.53;5085036;28;20038;-76
2023/06/25 07:04:39;;;;;;;13.40;7.28;;;;;;;-140.66;100.00;55571.53;5113794;28;20020;-76
2023/06/25 07:07:25;;;;;;;14.35;8.00;;;;;;;-140.66;100.00;55571.53;5114187;28;20377;-76
2023/06/25 07:10:10;;;;;;;20.92;8.10;;;;;;;-140.66;100.00;55571.53;5099047;28;20023;-76
2023/06/25 07:12:56;;;;;;;12.48;7.40;;;;;;;-140.66;100.00;55571.53;5098333;28;20126;-76
2023/06/25 07:15:42;;;;;;;15.55;7.38;;;;;;;-140.66;100.00;55571.53;5117782;28;20403;-76
2023/06/25 07:18:28;;;;;;;13.77;7.20;;;;;;;-140.66;100.00;55571.53;5101952;28;20040;-76
2023/06/25 07:21:13;;;;;;;16.83;8.13;;;;;;;-140.66;100.00;55571.53;5116662;28;20035;-75
2023/06/25 07:23:59;;;;;;;19.27;7.90;;;;;;;-140.66;100.00;55571.53;5116851;28;20019;-75
2023/06/25 07:26:45;;;;;;;18.55;7.55;;;;;;;-140.66;100.00;55571.53;5117070;28;20028;-75
2023/06/25 07:29:30;;;;;;;12.57;6.65;;;;;;;-140.66;100.00;55571.53;5117271;28;20031;-75
2023/06/25 07:32:16;;;;;;;15.48;7.18;;;;;;;-140.66;100.00;55571.53;5102009;28;20028;-75
2023/06/25 07:35:02;;;;;;;12.27;7.40;;;;;;;-140.66;100.00;55571.53;5116225;28;20019;-75
2023/06/25 07:37:48;;;;;;;16.42;7.85;;;;;;;-140.66;100.00;55571.53;5116889;28;20024;-75
2023/06/25 07:40:33;;;;;;;13.77;7.82;;;;;;;-140.66;100.00;55571.53;5102392;28;20461;-76
2023/06/25 07:43:19;;;;;;;13.55;8.25;;;;;;;-140.66;100.00;55571.53;5117124;28;20054;-75
2023/06/25 07:46:05;;;;;;;16.88;11.00;;;;;;;-140.66;100.00;55571.53;5120457;28;20087;-76
2023/06/25 07:48:51;;;;;;;21.45;9.73;;;;;;;-140.66;100.00;55571.53;5132456;28;20020;-73
2023/06/25 07:51:36;;;;;;;19.50;9.15;;;;;;;-140.66;100.00;55571.53;5120278;28;20051;-75
2023/06/25 07:54:22;;;;;;;18.08;9.18;;;;;;;-140.66;100.00;55571.53;5102174;28;20020;-74
2023/06/25 07:57:08;;;;;;;15.52;8.77;;;;;;;-140.66;100.00;55571.53;5115349;28;20027;-75
2023/06/25 07:59:54;;;;;;;19.80;8.65;;;;;;;-140.66;100.00;55571.53;5116803;28;20134;-76
2023/06/25 08:02:40;;;;;;;13.27;8.32;;;;;;;-140.66;100.00;55571.53;5116525;28;20027;-76
2023/06/25 08:05:25;;;;;;;13.75;8.75;;;;;;;-140.66;100.00;55571.53;5101885;28;20099;-75
2023/06/25 08:08:11;;;;;;;18.17;8.30;;;;;;;-140.66;100.00;55571.53;5116891;28;20034;-76
2023/06/25 08:10:57;;;;;;;16.00;10.57;;;;;;;-140.66;100.00;55571.53;5129754;28;20031;-76
2023/06/25 08:13:42;;;;;;;18.67;9.20;;;;;;;-140.66;100.00;55571.53;5119391;28;20491;-75
2023/06/25 08:16:29;;;;;;;17.33;10.07;;;;;;;-140.66;100.00;55571.53;5101641;28;20464;-75
2023/06/25 08:19:15;;;;;;;24.23;14.90;;;;;;;-140.66;100.00;55571.53;5115100;28;20058;-75
2023/06/25 08:22:01;;;;;;;20.02;14.45;;;;;;;-140.66;100.00;55571.53;5115614;28;20027;-76
2023/06/25 08:24:46;;;;;;;24.90;15.18;;;;;;;-140.66;100.00;55571.53;5100765;28;20126;-76
2023/06/25 08:27:32;;;;;;;21.88;13.73;;;;;;;-140.66;100.00;55571.53;5116340;28;20027;-75
2023/06/25 08:30:18;;;;;;;22.38;14.23;;;;;;;-140.66;100.00;55571.53;5115325;28;20031;-75
2023/06/25 08:33:04;;;;;;;21.35;13.27;;;;;;;-140.66;100.00;55571.53;5115567;28;20031;-75
2023/06/25 08:35:49;;;;;;;21.25;12.93;;;;;;;-140.66;100.00;55571.53;5115067;28;20028;-75
2023/06/25 08:38:36;;;;;;;20.55;12.35;;;;;;;-140.66;100.00;55571.53;5101465;28;20050;-75
2023/06/25 08:41:23;;;;;;;23.73;13.25;;;;;;;-140.66;100.00;55571.53;5115892;28;20027;-76
2023/06/25 08:44:10;;;;;;;24.52;15.52;;;;;;;-140.66;100.00;55571.53;5115076;28;20063;-75
2023/06/25 08:46:55;;;;;;;20.98;13.98;;;;;;;-140.66;100.00;55571.53;5100705;28;20051;-75
2023/06/25 08:49:43;;;;;;;19.88;12.52;;;;;;;-140.66;100.00;55571.53;5099511;28;20099;-75
2023/06/25 08:52:30;;;;;;;18.45;12.20;;;;;;;-140.66;100.00;55571.53;5116302;28;20438;-75
2023/06/25 08:55:19;;;;;;;24.20;16.33;;;;;;;-140.66;100.00;55571.53;5115201;28;20023;-76
2023/06/25 08:58:05;;;;;;;25.35;16.33;;;;;;;-140.66;100.00;55571.53;5114777;28;20420;-75
2023/06/25 09:00:51;;;;;;;26.00;15.32;;;;;;;-140.66;100.00;55571.53;5115023;28;20119;-76
2023/06/25 09:03:37;;;;;;;26.23;15.82;;;;;;;-140.66;100.00;55571.53;5100902;28;20027;-75
2023/06/25 09:06:23;;;;;;;29.50;16.83;;;;;;;-140.66;100.00;55571.53;5100025;28;20472;-76
2023/06/25 09:09:10;;;;;;;30.17;18.65;;;;;;;-140.66;100.00;55571.53;5115110;28;20115;-75
2023/06/25 09:11:55;;;;;;;19.20;13.35;;;;;;;-140.66;100.00;55571.53;5114637;28;20058;-75
2023/06/25 09:14:41;;;;;;;20.35;12.80;;;;;;;-140.66;100.00;55571.53;5114645;28;20016;-75
2023/06/25 09:17:27;;;;;;;26.67;14.38;;;;;;;-140.66;100.00;55571.53;5115188;28;20040;-76
2023/06/25 09:20:13;;;;;;;25.73;14.73;;;;;;;-140.66;100.00;55571.53;5099818;28;20096;-76
2023/06/25 09:23:04;;;;;;;22.23;14.43;;;;;;;-140.66;100.00;55571.53;5114419;28;20445;-77
2023/06/25 09:25:50;;;;;;;23.17;15.25;;;;;;;-140.66;100.00;55571.53;5114359;28;20023;-75
2023/06/25 09:29:03;;;;;;;22.00;14.20;;;;;;;-140.66;100.00;55571.53;5100107;28;20110;-75
2023/06/25 09:31:49;;;;;;;17.10;13.75;;;;;;;-140.66;100.00;55571.53;5114323;28;20027;-74
2023/06/25 09:34:36;;;;;;;23.88;13.48;;;;;;;-140.66;100.00;55571.53;5100494;27;20039;-74
2023/06/25 09:37:22;;;;;;;21.00;13.80;;;;;;;-140.66;100.00;55571.53;5123454;27;20034;-75
2023/06/25 09:40:08;;;;;;;23.05;14.02;;;;;;;-140.66;100.00;55571.53;5143938;27;20023;-76
2023/06/25 09:42:59;;;;;;;21.67;13.38;;;;;;;-140.66;100.00;55571.53;5115064;28;20088;-76
2023/06/25 09:45:45;;;;;;;24.55;13.15;;;;;;;-140.66;100.00;55571.53;5115045;28;20099;-75
2023/06/25 09:48:31;;;;;;;18.05;11.07;;;;;;;-140.66;100.00;55571.53;5115078;28;20023;-76
2023/06/25 09:51:19;;;;;;;17.00;12.02;;;;;;;-140.66;100.00;55571.53;5113674;28;20172;-75
2023/06/25 09:54:08;;;;;;;21.42;12.80;;;;;;;-140.66;100.00;55571.53;5115738;28;20176;-76
2023/06/25 09:56:57;;;;;;;16.83;11.40;;;;;;;-140.66;100.00;55571.53;5114273;28;20019;-75
2023/06/25 09:59:43;;;;;;;19.50;10.80;;;;;;;-140.66;100.00;55571.53;5115012;28;20363;-76
2023/06/25 10:02:29;;;;;;;16.40;10.20;;;;;;;-140.66;100.00;55571.53;5114233;28;20024;-76
2023/06/25 10:05:18;;;;;;;19.38;11.57;;;;;;;-140.66;100.00;55571.53;5102865;27;20074;-75
2023/06/25 10:08:04;;;;;;;13.93;10.95;;;;;;;-140.66;100.00;55571.53;5134544;28;20034;-78
2023/06/25 10:10:58;;;;;;;16.50;10.57;;;;;;;-140.66;100.00;55571.53;5134014;27;20027;-75
2023/06/25 10:13:48;;;;;;;19.48;11.73;;;;;;;-140.66;100.00;55571.53;5133974;28;20027;-76
2023/06/25 10:16:34;;;;;;;17.00;10.98;;;;;;;-140.66;100.00;55571.53;5133190;27;20084;-75
2023/06/25 10:19:21;;;;;;;16.85;12.15;;;;;;;-140.66;100.00;55571.53;5134460;28;20143;-76
2023/06/25 10:22:12;;;;;;;14.18;10.10;;;;;;;-140.66;100.00;55571.53;5133051;28;20139;-74
2023/06/25 10:24:57;;;;;;;18.00;12.40;;;;;;;-140.66;100.00;55571.53;5134067;28;20023;-74
2023/06/25 10:27:43;;;;;;;16.10;11.30;;;;;;;-140.66;100.00;55571.53;5134951;28;20059;-74
2023/06/25 10:30:38;;;;;;;17.27;11.60;;;;;;;-140.66;100.00;55571.53;5134979;28;20038;-75
2023/06/25 10:33:24;;;;;;;15.50;11.02;;;;;;;-140.66;100.00;55571.53;5119850;28;20114;-74
2023/06/25 10:36:11;;;;;;;19.13;11.10;;;;;;;-140.66;100.00;55571.53;5134798;28;20018;-74
2023/06/25 10:38:58;;;;;;;15.05;10.63;;;;;;;-140.66;100.00;55571.53;5134567;28;20496;-74
2023/06/25 10:41:47;;;;;;;20.65;10.98;;;;;;;-140.66;100.00;55571.53;5134134;27;20031;-74
2023/06/25 10:44:33;;;;;;;16.27;11.18;;;;;;;-140.66;100.00;55571.53;5118545;28;20039;-74
2023/06/25 10:47:19;;;;;;;20.75;11.88;;;;;;;-140.66;100.00;55571.53;5120588;28;20046;-73
2023/06/25 10:50:05;;;;;;;29.58;11.63;;;;;;;-140.66;100.00;55571.53;5137616;27;20510;-74
2023/06/25 10:52:51;;;;;;;17.10;10.30;;;;;;;-140.66;100.00;55571.53;5138727;27;20046;-74
2023/06/25 10:55:38;;;;;;;18.48;9.85;;;;;;;-140.66;100.00;55571.53;5138503;27;20027;-74
2023/06/25 10:58:24;;;;;;;17.85;10.32;;;;;;;-140.66;100.00;55571.53;5137991;27;20512;-75
2023/06/25 11:01:10;;;;;;;13.70;10.05;;;;;;;-140.66;100.00;55571.53;5138956;27;20380;-75
2023/06/25 11:03:56;;;;;;;16.33;10.45;;;;;;;-140.66;100.00;55571.53;5138527;27;20027;-75
2023/06/25 11:06:42;;;;;;;16.25;10.55;;;;;;;-140.66;100.00;55571.53;5138054;27;20042;-74
2023/06/25 11:09:28;;;;;;;19.52;10.70;;;;;;;-140.66;100.00;55571.53;5139066;27;20137;-74
2023/06/25 11:12:14;;;;;;;19.63;10.65;;;;;;;-140.66;100.00;55571.53;5140805;27;20026;-78
2023/06/25 11:14:59;;;;;;;16.10;10.82;;;;;;;-140.66;100.00;55571.53;5153625;27;20023;-75
2023/06/25 11:17:49;;;;;;;16.45;10.68;;;;;;;-140.66;100.00;55571.53;5139088;27;20023;-76
2023/06/25 11:20:38;;;;;;;17.23;10.60;;;;;;;-140.66;100.00;55571.53;5138949;27;20047;-76
2023/06/25 11:23:24;;;;;;;18.88;10.35;;;;;;;-140.66;100.00;55571.53;5123686;27;20023;-75
2023/06/25 11:26:14;;;;;;;26.02;10.73;;;;;;;-140.66;100.00;55571.53;5137881;27;20047;-76
2023/06/25 11:29:07;;;;;;;16.95;11.38;;;;;;;-140.66;100.00;55571.53;5137863;27;20110;-74
2023/06/25 11:31:56;;;;;;;14.60;10.50;;;;;;;-140.66;100.00;55571.53;5139065;27;20023;-76
2023/06/25 11:34:45;;;;;;;15.23;10.10;;;;;;;-140.66;100.00;55571.53;5147134;27;20111;-75
2023/06/25 11:37:45;;;;;;;15.05;10.27;;;;;;;-140.66;100.00;55571.53;5137578;27;20038;-76
2023/06/25 11:40:33;;;;;;;16.10;9.48;;;;;;;-140.66;100.00;55571.53;5137223;27;20452;-75
2023/06/25 11:43:22;;;;;;;16.75;10.30;;;;;;;-140.66;100.00;55571.53;5138177;27;20372;-76
2023/06/25 11:46:08;;;;;;;18.10;9.85;;;;;;;-140.66;100.00;55571.53;5122950;27;20037;-78
2023/06/25 11:48:54;;;;;;;14.40;9.93;;;;;;;-140.66;100.00;55571.53;5137466;27;20019;-75
2023/06/25 11:51:40;;;;;;;16.65;10.73;;;;;;;-140.66;100.00;55571.53;5137527;27;20106;-75
2023/06/25 11:54:26;;;;;;;13.48;9.90;;;;;;;-140.66;100.00;55571.53;5137606;27;20023;-74
2023/06/25 11:57:11;;;;;;;14.00;10.15;;;;;;;-140.66;100.00;55571.53;5137270;27;20029;-74
2023/06/25 11:59:57;;;;;;;16.08;10.30;;;;;;;-140.66;100.00;55571.53;5122475;27;20023;-75
2023/06/25 12:02:43;;;;;;;13.75;9.75;;;;;;;-140.66;100.00;55571.53;5123013;27;20498;-76
2023/06/25 12:05:29;;;;;;;20.25;10.57;;;;;;;-140.66;100.00;55571.53;5137138;27;20363;-75
2023/06/25 12:08:15;;;;;;;20.02;11.20;;;;;;;-140.66;100.00;55571.53;5121267;27;20055;-75
2023/06/25 12:11:00;;;;;;;17.25;10.35;;;;;;;-140.66;100.00;55571.53;5136983;27;20027;-77
2023/06/25 12:13:46;;;;;;;16.98;10.18;;;;;;;-140.66;100.00;55571.53;5137714;27;20345;-76
2023/06/25 12:16:32;;;;;;;16.45;10.73;;;;;;;-140.66;100.00;55571.53;5121222;27;20385;-76
2023/06/25 12:19:18;;;;;;;17.20;11.18;;;;;;;-140.66;100.00;55571.53;5122703;27;20077;-76
2023/06/25 12:22:04;;;;;;;19.92;11.48;;;;;;;-140.66;100.00;55571.53;5136085;27;20058;-76
2023/06/25 12:24:49;;;;;;;15.15;10.93;;;;;;;-140.66;100.00;55571.53;5135739;27;20445;-75